createdAt,value
2023-02-23T00:01:18.598Z,42.50
2023-02-23T00:03:46.895Z,37.58
2023-02-23T00:06:14.716Z,36.25
2023-02-23T00:08:42.353Z,49.10
2023-02-23T00:11:12.503Z,46.47
2023-02-23T00:13:40.551Z,49.70
2023-02-23T00:16:12.568Z,52.83
2023-02-23T00:18:46.001Z,51.00
2023-02-23T00:21:15.925Z,46.30
2023-02-23T00:23:45.493Z,50.75
2023-02-23T00:26:14.043Z,47.17
2023-02-23T00:28:43.470Z,52.53
2023-02-23T00:31:12.865Z,44.92
2023-02-23T00:33:41.046Z,50.47
2023-02-23T00:36:09.632Z,48.45
2023-02-23T00:38:37.392Z,51.63
2023-02-23T00:41:06.245Z,52.08
2023-02-23T00:43:34.938Z,46.38
2023-02-23T00:46:05.799Z,62.08
2023-02-23T00:48:35.219Z,59.33
2023-02-23T00:51:03.607Z,51.20
2023-02-23T00:53:31.715Z,49.55
2023-02-23T00:55:59.721Z,61.25
2023-02-23T00:58:27.734Z,56.00
2023-02-23T01:00:55.558Z,60.58
2023-02-23T01:03:23.159Z,55.88
2023-02-23T01:05:52.180Z,55.72
2023-02-23T01:08:19.935Z,55.97
2023-02-23T01:10:53.784Z,60.97
2023-02-23T01:13:21.963Z,50.70
2023-02-23T01:15:49.924Z,53.35
2023-02-23T01:18:17.902Z,71.43
2023-02-23T01:20:46.352Z,59.17
2023-02-23T01:23:16.020Z,62.83
2023-02-23T01:25:48.031Z,55.42
2023-02-23T01:28:15.648Z,67.13
2023-02-23T01:30:43.363Z,67.65
2023-02-23T01:33:12.750Z,52.13
2023-02-23T01:35:40.691Z,65.13
2023-02-23T01:38:08.330Z,56.80
2023-02-23T01:40:39.303Z,61.53
2023-02-23T01:43:14.296Z,59.75
2023-02-23T01:45:42.876Z,56.65
2023-02-23T01:48:13.022Z,64.93
2023-02-23T01:50:44.741Z,85.70
2023-02-23T01:53:12.611Z,64.05
2023-02-23T01:55:41.811Z,64.88
2023-02-23T01:58:15.534Z,79.10
2023-02-23T02:00:48.252Z,80.85
2023-02-23T02:03:20.403Z,62.67
2023-02-23T02:05:49.547Z,70.57
2023-02-23T02:08:19.036Z,80.13
2023-02-23T02:10:48.233Z,79.60
2023-02-23T02:13:21.686Z,80.25
2023-02-23T02:16:09.663Z,82.07
2023-02-23T02:18:43.350Z,79.43
2023-02-23T02:21:25.872Z,81.40
2023-02-23T02:24:02.981Z,96.25
2023-02-23T02:26:36.775Z,90.00
2023-02-23T02:29:34.641Z,70.60
2023-02-23T02:32:13.308Z,87.28
2023-02-23T02:34:51.048Z,88.35
2023-02-23T02:37:28.337Z,92.18
2023-02-23T02:40:15.541Z,87.32
2023-02-23T02:42:57.109Z,73.78
2023-02-23T02:45:28.039Z,75.53
2023-02-23T02:47:58.450Z,101.30
2023-02-23T02:50:31.380Z,97.38
2023-02-23T02:53:02.631Z,99.13
2023-02-23T02:55:34.374Z,104.97
2023-02-23T02:58:03.329Z,87.32
2023-02-23T03:00:53.797Z,80.53
2023-02-23T03:03:51.581Z,91.93
2023-02-23T03:06:37.559Z,86.57
2023-02-23T03:09:29.314Z,93.53
2023-02-23T03:12:22.258Z,77.35
2023-02-23T03:15:11.301Z,85.93
2023-02-23T03:18:01.725Z,81.10
2023-02-23T03:20:52.819Z,98.20
2023-02-23T03:23:39.737Z,81.93
2023-02-23T03:26:28.288Z,111.10
2023-02-23T03:29:16.806Z,85.30
2023-02-23T03:32:05.288Z,89.20
2023-02-23T03:34:55.494Z,91.57
2023-02-23T03:37:43.749Z,84.72
2023-02-23T03:40:32.170Z,112.03
2023-02-23T03:43:20.285Z,104.82
2023-02-23T03:46:07.066Z,99.95
2023-02-23T03:48:54.190Z,94.82
2023-02-23T03:51:40.800Z,107.47
2023-02-23T03:54:28.691Z,94.82
2023-02-23T03:57:15.497Z,109.03
2023-02-23T04:00:06.138Z,93.80
2023-02-23T04:02:53.139Z,102.13
2023-02-23T04:05:39.199Z,110.55
2023-02-23T04:08:25.874Z,102.25
2023-02-23T04:11:16.707Z,101.53
2023-02-23T04:13:46.365Z,99.63
2023-02-23T04:16:15.994Z,102.10
2023-02-23T04:18:44.214Z,92.85
2023-02-23T04:21:11.976Z,107.10
2023-02-23T04:23:40.755Z,97.22
2023-02-23T04:26:08.389Z,92.38
2023-02-23T04:28:36.020Z,107.47
2023-02-23T04:31:03.617Z,126.55
2023-02-23T04:33:32.590Z,106.90
2023-02-23T04:36:00.390Z,110.30
2023-02-23T04:38:28.074Z,123.38
2023-02-23T04:40:55.836Z,103.65
2023-02-23T04:43:23.479Z,99.38
2023-02-23T04:45:51.118Z,105.68
2023-02-23T04:48:18.757Z,100.18
2023-02-23T04:50:47.866Z,109.32
2023-02-23T04:53:15.537Z,104.60
2023-02-23T04:55:43.333Z,92.55
2023-02-23T04:58:13.756Z,99.38
2023-02-23T05:00:41.677Z,97.15
2023-02-23T05:03:09.677Z,91.07
2023-02-23T05:05:37.369Z,89.72
2023-02-23T05:08:06.697Z,82.90
2023-02-23T05:10:34.329Z,85.07
2023-02-23T05:13:02.201Z,87.05
2023-02-23T05:15:29.798Z,95.35
2023-02-23T05:17:57.413Z,93.30
2023-02-23T05:20:25.059Z,82.95
2023-02-23T05:22:52.699Z,87.50
2023-02-23T05:25:21.692Z,96.22
2023-02-23T05:27:49.808Z,73.85
2023-02-23T05:30:18.195Z,92.03
2023-02-23T05:32:45.832Z,89.20
2023-02-23T05:35:13.722Z,87.05
2023-02-23T05:37:41.354Z,73.30
2023-02-23T05:40:10.821Z,91.15
2023-02-23T05:42:39.871Z,86.88
2023-02-23T05:45:08.242Z,81.78
2023-02-23T05:47:38.747Z,96.60
2023-02-23T05:50:07.080Z,93.15
2023-02-23T05:52:34.713Z,83.35
2023-02-23T05:55:02.452Z,80.88
2023-02-23T05:57:30.057Z,69.82
2023-02-23T05:59:59.019Z,82.88
2023-02-23T06:02:26.688Z,77.95
2023-02-23T06:04:54.406Z,87.45
2023-02-23T06:07:22.054Z,80.00
2023-02-23T06:09:49.886Z,92.10
2023-02-23T06:12:17.806Z,103.70
2023-02-23T06:14:45.519Z,105.60
2023-02-23T06:17:14.489Z,79.43
2023-02-23T06:19:42.218Z,93.95
2023-02-23T06:22:10.416Z,114.47
2023-02-23T06:24:38.054Z,102.35
2023-02-23T06:27:05.706Z,127.97
2023-02-23T06:29:33.335Z,117.68
2023-02-23T06:32:01.311Z,125.35
2023-02-23T06:34:30.821Z,129.05
2023-02-23T06:36:58.478Z,120.05
2023-02-23T06:39:26.168Z,109.13
2023-02-23T06:41:53.796Z,162.73
2023-02-23T06:44:24.588Z,135.30
2023-02-23T06:46:52.239Z,196.32
2023-02-23T06:49:20.056Z,94.35
2023-02-23T06:51:49.647Z,183.43
2023-02-23T06:54:17.661Z,268.02
2023-02-23T06:56:45.340Z,237.50
2023-02-23T06:59:12.983Z,165.30
2023-02-23T07:01:42.525Z,231.13
2023-02-23T07:04:10.197Z,130.50
2023-02-23T07:06:41.899Z,106.18
2023-02-23T07:09:10.890Z,219.23
2023-02-23T07:11:39.035Z,109.57
2023-02-23T07:14:10.681Z,177.18
2023-02-23T07:16:40.726Z,250.13
2023-02-23T07:19:08.462Z,190.65
2023-02-23T07:21:36.091Z,107.35
2023-02-23T07:24:04.883Z,142.73
2023-02-23T07:26:34.891Z,96.97
2023-02-23T07:29:03.043Z,261.77
2023-02-23T07:31:31.435Z,262.52
2023-02-23T07:33:59.048Z,207.10
2023-02-23T07:36:26.734Z,120.57
2023-02-23T07:38:54.422Z,207.68
2023-02-23T07:41:22.365Z,125.70
2023-02-23T07:43:51.668Z,129.85
2023-02-23T07:46:19.282Z,165.80
2023-02-23T07:48:46.947Z,94.25
2023-02-23T07:51:15.824Z,238.70
2023-02-23T07:53:43.677Z,191.43
2023-02-23T07:56:12.267Z,170.07
2023-02-23T07:58:40.366Z,164.63
2023-02-23T08:01:09.802Z,225.65
2023-02-23T08:03:37.573Z,144.07
2023-02-23T08:06:05.451Z,100.32
2023-02-23T08:08:34.039Z,82.72
2023-02-23T08:11:02.426Z,102.80
2023-02-23T08:13:31.871Z,104.32
2023-02-23T08:16:00.128Z,102.90
2023-02-23T08:18:29.175Z,105.60
2023-02-23T08:20:59.001Z,100.97
2023-02-23T08:23:26.641Z,106.47
2023-02-23T08:25:55.049Z,127.45
2023-02-23T08:28:23.163Z,104.60
2023-02-23T08:30:50.825Z,100.03
2023-02-23T08:33:18.422Z,105.60
2023-02-23T08:35:47.424Z,105.32
2023-02-23T08:38:16.520Z,102.70
2023-02-23T08:40:44.294Z,106.30
2023-02-23T08:43:11.953Z,95.07
2023-02-23T08:45:39.814Z,90.05
2023-02-23T08:48:07.808Z,100.90
2023-02-23T08:50:36.145Z,95.40
2023-02-23T08:53:05.461Z,91.50
2023-02-23T08:55:35.599Z,96.38
2023-02-23T08:58:03.213Z,87.53
2023-02-23T09:00:31.478Z,90.50
2023-02-23T09:02:59.076Z,94.57
2023-02-23T09:05:26.783Z,82.85
2023-02-23T09:07:54.411Z,87.00
2023-02-23T09:10:25.045Z,85.40
2023-02-23T09:12:52.950Z,100.00
2023-02-23T09:15:20.639Z,86.35
2023-02-23T09:17:48.855Z,83.50
2023-02-23T09:20:16.943Z,96.13
2023-02-23T09:22:48.635Z,108.07
2023-02-23T09:25:19.117Z,91.43
2023-02-23T09:27:48.949Z,103.00
2023-02-23T09:30:20.711Z,98.55
2023-02-23T09:32:48.945Z,89.68
2023-02-23T09:35:17.920Z,87.85
2023-02-23T09:37:47.158Z,85.40
2023-02-23T09:40:16.450Z,72.85
2023-02-23T09:42:48.977Z,81.65
2023-02-23T09:45:22.158Z,71.63
2023-02-23T09:47:57.185Z,66.90
2023-02-23T09:50:26.332Z,72.20
2023-02-23T09:52:59.389Z,80.30
2023-02-23T09:55:28.084Z,90.50
2023-02-23T09:57:58.063Z,82.03
2023-02-23T10:00:28.436Z,83.88
2023-02-23T10:03:02.198Z,95.47
2023-02-23T10:05:31.818Z,80.32
2023-02-23T10:08:02.763Z,82.00
2023-02-23T10:10:34.652Z,85.15
2023-02-23T10:13:05.588Z,86.63
2023-02-23T10:15:38.239Z,84.57
2023-02-23T10:18:13.495Z,83.13
2023-02-23T10:20:46.408Z,84.43
2023-02-23T10:23:16.546Z,79.05
2023-02-23T10:25:46.769Z,74.70
2023-02-23T10:28:16.225Z,73.68
2023-02-23T10:30:45.384Z,71.00
2023-02-23T10:33:17.160Z,68.07
2023-02-23T10:35:45.013Z,73.85
2023-02-23T10:38:15.697Z,72.60
2023-02-23T10:40:44.338Z,72.03
2023-02-23T10:43:12.585Z,65.72
2023-02-23T10:45:42.244Z,55.60
2023-02-23T10:48:16.844Z,62.40
2023-02-23T10:50:45.961Z,59.55
2023-02-23T10:53:16.628Z,60.97
2023-02-23T10:55:45.319Z,63.38
2023-02-23T10:58:17.005Z,66.28
2023-02-23T11:00:55.160Z,58.92
2023-02-23T11:03:27.638Z,55.17
2023-02-23T11:05:55.389Z,55.35
2023-02-23T11:08:29.288Z,47.65
2023-02-23T11:10:58.029Z,52.85
2023-02-23T11:13:27.467Z,60.05
2023-02-23T11:16:00.290Z,57.55
2023-02-23T11:18:29.624Z,59.35
2023-02-23T11:20:57.416Z,49.65
2023-02-23T11:23:29.162Z,47.22
2023-02-23T11:26:00.060Z,55.47
2023-02-23T11:28:30.274Z,58.55
2023-02-23T11:30:59.765Z,52.05
2023-02-23T11:33:31.547Z,60.17
2023-02-23T11:36:01.364Z,54.72
2023-02-23T11:38:29.703Z,52.97
2023-02-23T11:41:01.362Z,59.00
2023-02-23T11:43:29.226Z,62.42
2023-02-23T11:45:58.262Z,52.30
2023-02-23T11:48:28.199Z,50.63
2023-02-23T11:50:56.831Z,60.63
2023-02-23T11:53:29.564Z,54.67
2023-02-23T11:55:59.239Z,63.22
2023-02-23T11:58:30.716Z,63.50
2023-02-23T12:00:59.494Z,60.53
2023-02-23T12:03:28.430Z,62.75
2023-02-23T12:05:59.206Z,59.55
2023-02-23T12:08:35.102Z,61.63
2023-02-23T12:11:05.421Z,65.47
2023-02-23T12:13:36.405Z,60.15
2023-02-23T12:16:06.290Z,65.90
2023-02-23T12:18:40.431Z,70.68
2023-02-23T12:21:16.123Z,64.90
2023-02-23T12:23:48.862Z,60.28
2023-02-23T12:26:20.338Z,60.78
2023-02-23T12:28:51.011Z,61.42
2023-02-23T12:31:22.611Z,58.08
2023-02-23T12:33:52.801Z,52.92
2023-02-23T12:36:22.317Z,59.95
2023-02-23T12:38:53.005Z,50.47
2023-02-23T12:41:22.517Z,52.20
2023-02-23T12:43:53.311Z,55.80
2023-02-23T12:46:23.372Z,65.38
2023-02-23T12:48:54.985Z,49.17
2023-02-23T12:51:27.955Z,43.67
2023-02-23T12:53:56.927Z,45.95
2023-02-23T12:56:44.191Z,43.38
2023-02-23T12:59:19.858Z,49.10
2023-02-23T13:01:49.036Z,40.15
2023-02-23T13:04:26.859Z,38.90
2023-02-23T13:06:58.765Z,41.15
2023-02-23T13:09:32.944Z,35.25
2023-02-23T13:12:07.603Z,33.55
2023-02-23T13:14:44.221Z,35.75
2023-02-23T13:17:19.399Z,34.22
2023-02-23T13:19:50.800Z,39.38
2023-02-23T13:22:26.372Z,34.10
2023-02-23T13:24:56.564Z,35.67
2023-02-23T13:27:27.046Z,40.80
2023-02-23T13:29:55.276Z,29.92
2023-02-23T13:32:25.427Z,30.38
2023-02-23T13:34:54.704Z,40.63
2023-02-23T13:37:23.773Z,34.67
2023-02-23T13:39:56.993Z,32.33
2023-02-23T13:42:33.526Z,40.05
2023-02-23T13:45:06.502Z,37.70
2023-02-23T13:47:37.353Z,39.90
2023-02-23T13:50:08.541Z,38.05
2023-02-23T13:52:39.753Z,34.22
2023-02-23T13:55:46.969Z,34.05
2023-02-23T13:58:17.511Z,36.30
2023-02-23T14:00:45.828Z,36.75
2023-02-23T14:03:22.349Z,35.20
2023-02-23T14:05:52.498Z,42.03
2023-02-23T14:08:22.924Z,34.72
2023-02-23T14:10:54.477Z,39.72
2023-02-23T14:13:28.100Z,37.15
2023-02-23T14:16:13.710Z,41.97
2023-02-23T14:18:56.410Z,41.65
2023-02-23T14:21:30.017Z,33.42
2023-02-23T14:24:04.729Z,33.53
2023-02-23T14:26:44.133Z,35.50
2023-02-23T14:29:26.642Z,34.63
2023-02-23T14:31:55.516Z,36.88
2023-02-23T14:34:23.910Z,40.63
2023-02-23T14:36:56.588Z,38.75
2023-02-23T14:39:25.903Z,36.60
2023-02-23T14:41:54.847Z,35.45
2023-02-23T14:44:30.306Z,36.15
2023-02-23T14:47:01.988Z,34.95
2023-02-23T14:49:32.523Z,37.75
2023-02-23T14:52:06.892Z,31.20
2023-02-23T14:54:35.368Z,38.47
2023-02-23T14:57:04.020Z,30.63
2023-02-23T14:59:38.451Z,31.80
2023-02-23T15:02:09.886Z,28.03
2023-02-23T15:04:38.742Z,38.92
2023-02-23T15:07:07.587Z,36.70
2023-02-23T15:09:37.321Z,41.97
2023-02-23T15:12:10.103Z,30.10
2023-02-23T15:14:39.844Z,33.58
2023-02-23T15:17:08.747Z,40.45
2023-02-23T15:19:39.304Z,35.80
2023-02-23T15:22:07.370Z,34.28
2023-02-23T15:24:42.851Z,36.47
2023-02-23T15:27:18.278Z,41.53
2023-02-23T15:29:47.315Z,36.03
2023-02-23T15:32:19.824Z,35.95
2023-02-23T15:34:47.649Z,32.55
2023-02-23T15:37:21.349Z,37.33
2023-02-23T15:39:53.217Z,31.42
2023-02-23T15:42:24.384Z,38.40
2023-02-23T15:44:57.620Z,29.48
2023-02-23T15:47:28.519Z,30.35
2023-02-23T15:50:02.142Z,32.95
2023-02-23T15:52:35.269Z,29.10
2023-02-23T15:55:06.392Z,22.15
2023-02-23T15:57:35.282Z,29.67
2023-02-23T16:00:11.315Z,23.38
2023-02-23T16:02:47.225Z,24.77
2023-02-23T16:05:21.956Z,25.73
2023-02-23T16:07:49.757Z,22.88
2023-02-23T16:10:21.684Z,24.35
2023-02-23T16:12:52.116Z,26.92
2023-02-23T16:15:24.679Z,26.88
2023-02-23T16:17:57.686Z,32.22
2023-02-23T16:20:30.502Z,29.38
2023-02-23T16:22:58.540Z,22.63
2023-02-23T16:25:27.326Z,25.75
2023-02-23T16:27:59.524Z,22.02
2023-02-23T16:30:37.628Z,23.88
2023-02-23T16:33:07.250Z,19.67
2023-02-23T16:35:38.030Z,17.20
2023-02-23T16:38:12.638Z,17.80
2023-02-23T16:40:40.386Z,20.35
2023-02-23T16:43:07.998Z,21.35
2023-02-23T16:45:37.484Z,19.83
2023-02-23T16:48:11.408Z,15.27
2023-02-23T16:50:40.661Z,19.25
2023-02-23T16:53:09.943Z,15.55
2023-02-23T16:55:40.361Z,20.38
2023-02-23T16:58:10.117Z,18.23
2023-02-23T17:00:39.325Z,17.40
2023-02-23T17:03:13.246Z,19.08
2023-02-23T17:05:41.065Z,19.05
2023-02-23T17:08:10.567Z,22.65
2023-02-23T17:10:38.190Z,20.20
2023-02-23T17:13:07.758Z,17.48
2023-02-23T17:15:36.025Z,20.70
2023-02-23T17:18:05.436Z,22.58
2023-02-23T17:20:33.682Z,16.50
2023-02-23T17:23:02.210Z,20.50
2023-02-23T17:25:30.272Z,12.40
2023-02-23T17:27:58.534Z,20.10
2023-02-23T17:30:26.409Z,19.50
2023-02-23T17:32:55.790Z,16.05
2023-02-23T17:35:25.701Z,16.00
2023-02-23T17:37:53.402Z,21.13
2023-02-23T17:40:29.377Z,22.10
2023-02-23T17:42:57.459Z,22.33
2023-02-23T17:45:25.136Z,19.77
2023-02-23T17:47:53.176Z,16.23
2023-02-23T17:50:21.827Z,18.13
2023-02-23T17:52:51.549Z,20.63
2023-02-23T17:55:19.902Z,20.95
2023-02-23T17:57:47.566Z,19.92
2023-02-23T18:00:18.064Z,19.55
2023-02-23T18:02:46.156Z,19.98
2023-02-23T18:05:14.680Z,18.85
2023-02-23T18:07:42.730Z,25.88
2023-02-23T18:10:13.359Z,23.23
2023-02-23T18:12:41.847Z,19.50
2023-02-23T18:15:09.900Z,20.30
2023-02-23T18:17:37.704Z,23.05
2023-02-23T18:20:07.202Z,18.25
2023-02-23T18:22:35.366Z,26.73
2023-02-23T18:25:03.118Z,30.85
2023-02-23T18:27:32.193Z,25.35
2023-02-23T18:29:59.803Z,31.95
2023-02-23T18:32:27.590Z,25.17
2023-02-23T18:34:56.419Z,30.30
2023-02-23T18:37:28.872Z,27.33
2023-02-23T18:39:59.611Z,25.50
2023-02-23T18:42:27.578Z,23.23
2023-02-23T18:45:00.231Z,21.38
2023-02-23T18:47:28.723Z,25.17
2023-02-23T18:49:56.722Z,22.15
2023-02-23T18:52:26.229Z,22.25
2023-02-23T18:54:53.999Z,26.15
2023-02-23T18:57:21.592Z,29.00
2023-02-23T18:59:49.322Z,26.00
2023-02-23T19:02:18.663Z,25.83
2023-02-23T19:04:46.309Z,17.17
2023-02-23T19:07:13.957Z,17.52
2023-02-23T19:09:41.970Z,21.58
2023-02-23T19:12:11.423Z,20.90
2023-02-23T19:14:49.188Z,14.65
2023-02-23T19:17:18.921Z,15.05
2023-02-23T19:19:46.633Z,15.55
2023-02-23T19:22:14.248Z,16.75
2023-02-23T19:24:41.885Z,17.13
2023-02-23T19:27:10.010Z,19.45
2023-02-23T19:29:37.746Z,17.10
2023-02-23T19:32:05.937Z,18.75
2023-02-23T19:34:35.052Z,16.75
2023-02-23T19:37:02.733Z,20.17
2023-02-23T19:39:30.356Z,16.38
2023-02-23T19:41:58.145Z,22.73
2023-02-23T19:44:26.424Z,18.10
2023-02-23T19:46:54.212Z,24.15
2023-02-23T19:49:22.019Z,30.83
2023-02-23T19:51:52.888Z,39.40
2023-02-23T19:54:20.618Z,25.45
2023-02-23T19:56:49.938Z,34.13
2023-02-23T19:59:17.635Z,30.02
2023-02-23T20:01:45.939Z,31.92
2023-02-23T20:04:13.582Z,27.98
2023-02-23T20:06:44.666Z,24.65
2023-02-23T20:09:13.868Z,27.10
2023-02-23T20:11:42.722Z,15.60
2023-02-23T20:14:10.914Z,30.50
2023-02-23T20:16:38.572Z,26.98
2023-02-23T20:19:07.725Z,30.63
2023-02-23T20:21:36.832Z,26.92
2023-02-23T20:24:05.563Z,28.83
2023-02-23T20:26:37.225Z,25.35
2023-02-23T20:29:06.756Z,33.58
2023-02-23T20:31:36.199Z,35.58
2023-02-23T20:34:05.676Z,39.90
2023-02-23T20:36:33.405Z,30.55
2023-02-23T20:39:01.211Z,28.17
2023-02-23T20:41:29.830Z,32.30
2023-02-23T20:44:00.776Z,33.60
2023-02-23T20:46:30.993Z,38.70
2023-02-23T20:49:01.146Z,29.00
2023-02-23T20:51:29.388Z,23.88
2023-02-23T20:53:57.004Z,24.80
2023-02-23T20:56:25.520Z,39.33
2023-02-23T20:58:54.413Z,22.38
2023-02-23T21:01:27.318Z,28.38
2023-02-23T21:03:55.827Z,33.22
2023-02-23T21:06:24.847Z,18.60
2023-02-23T21:08:55.712Z,24.67
2023-02-23T21:11:25.764Z,27.10
2023-02-23T21:13:53.819Z,25.55
2023-02-23T21:16:23.742Z,29.08
2023-02-23T21:19:04.519Z,22.33
2023-02-23T21:21:33.115Z,22.33
2023-02-23T21:24:01.263Z,21.88
2023-02-23T21:26:30.517Z,15.90
2023-02-23T21:28:58.448Z,24.73
2023-02-23T21:31:26.435Z,16.10
2023-02-23T21:33:55.643Z,30.30
2023-02-23T21:36:23.343Z,20.02
2023-02-23T21:38:51.345Z,28.23
2023-02-23T21:41:19.440Z,15.65
2023-02-23T21:43:48.537Z,27.83
2023-02-23T21:46:17.347Z,22.60
2023-02-23T21:48:45.434Z,25.02
2023-02-23T21:51:15.553Z,26.15
2023-02-23T21:53:43.915Z,21.55
2023-02-23T21:56:13.910Z,20.02
2023-02-23T21:58:45.181Z,32.38
2023-02-23T22:01:13.320Z,25.00
2023-02-23T22:03:45.213Z,21.13
2023-02-23T22:06:14.416Z,26.38
2023-02-23T22:08:43.072Z,13.75
2023-02-23T22:11:11.748Z,15.27
2023-02-23T22:13:39.407Z,16.80
2023-02-23T22:16:08.642Z,22.02
2023-02-23T22:18:36.391Z,18.60
2023-02-23T22:21:04.827Z,15.38
2023-02-23T22:23:34.498Z,14.30
2023-02-23T22:26:02.328Z,17.45
2023-02-23T22:28:30.082Z,14.18
2023-02-23T22:30:57.900Z,22.15
2023-02-23T22:33:25.595Z,10.57
2023-02-23T22:35:53.321Z,13.63
2023-02-23T22:38:21.118Z,18.02
2023-02-23T22:40:50.452Z,9.73
2023-02-23T22:43:21.895Z,18.23
2023-02-23T22:45:54.544Z,18.88
2023-02-23T22:48:23.485Z,11.20
2023-02-23T22:50:52.052Z,16.33
2023-02-23T22:53:19.715Z,16.75
2023-02-23T22:55:47.842Z,17.50
2023-02-23T22:58:17.539Z,17.88
2023-02-23T23:01:02.105Z,26.48
2023-02-23T23:03:31.614Z,10.27
2023-02-23T23:06:02.539Z,7.93
2023-02-23T23:08:30.775Z,16.58
2023-02-23T23:11:03.672Z,17.88
2023-02-23T23:13:33.033Z,20.02
2023-02-23T23:16:07.942Z,12.63
2023-02-23T23:18:36.927Z,11.60
2023-02-23T23:21:09.464Z,8.60
2023-02-23T23:23:37.057Z,16.83
2023-02-23T23:26:06.535Z,8.27
2023-02-23T23:28:40.081Z,9.48
2023-02-23T23:31:10.456Z,8.70
2023-02-23T23:33:40.770Z,20.48
2023-02-23T23:36:08.940Z,15.77
2023-02-23T23:38:38.593Z,11.23
2023-02-23T23:41:10.082Z,20.67
2023-02-23T23:43:39.324Z,8.43
2023-02-23T23:46:08.779Z,12.63
2023-02-23T23:48:39.097Z,7.80
2023-02-23T23:51:07.121Z,11.68
2023-02-23T23:53:34.792Z,12.07
2023-02-23T23:56:10.759Z,11.82
2023-02-23T23:58:39.772Z,6.45
